Time;durP1;ratioP1;P1;durP2;ratioP2;P2;SDS_P1;SDS_P2;PMS_P1;PMS_P2;Temp;Humidity;BMP_temperature;BMP_pressure;BME280_temperature;BME280_humidity;BME280_pressure;Samples;Min_cycle;Max_cycle;Signal;HPM_P1;HPM_P2
2022/06/07 18:52:38;;;;;;;4.05;2.60;;;;;;;17.98;68.87;98819.78;5124351;27;20213;-67
2022/06/07 18:55:07;;;;;;;3.10;2.40;;;;;;;18.01;69.74;98811.44;5123342;28;20047;-68
2022/06/07 18:57:35;;;;;;;3.90;3.00;;;;;;;18.02;69.12;98816.66;5123348;28;20047;-69
2022/06/07 19:00:06;;;;;;;4.28;2.97;;;;;;;17.87;69.64;98783.25;5123268;28;20056;-68
2022/06/07 19:02:33;;;;;;;5.07;2.17;;;;;;;18.10;69.39;98824.84;5123198;28;20223;-68
2022/06/07 19:05:00;;;;;;;4.28;2.13;;;;;;;18.14;69.68;98823.56;5122884;28;20083;-68
2022/06/07 19:07:28;;;;;;;3.58;2.28;;;;;;;17.67;70.09;98738.72;5123114;28;20056;-68
2022/06/07 19:10:02;;;;;;;4.65;3.20;;;;;;;18.24;70.08;98829.72;5123016;28;20066;-68
2022/06/07 19:12:32;;;;;;;3.67;2.45;;;;;;;18.30;70.49;98830.16;5123117;28;20044;-68
2022/06/07 19:14:59;;;;;;;7.22;4.03;;;;;;;18.34;70.05;98831.53;5123191;28;20074;-68
2022/06/07 19:17:26;;;;;;;13.38;11.00;;;;;;;18.37;70.12;98833.94;5123041;28;20063;-69
2022/06/07 19:19:53;;;;;;;7.65;5.60;;;;;;;18.42;70.38;98828.97;5123067;28;20063;-68
2022/06/07 19:22:21;;;;;;;4.70;3.42;;;;;;;18.42;70.03;98831.66;5122581;28;20052;-68
2022/06/07 19:24:48;;;;;;;7.88;3.88;;;;;;;18.39;70.21;98843.53;5123001;28;20063;-69
2022/06/07 19:27:16;;;;;;;5.30;3.60;;;;;;;18.41;69.79;98854.09;5122924;28;20055;-68
2022/06/07 19:29:44;;;;;;;3.38;1.90;;;;;;;18.37;70.11;98839.28;5122717;28;20056;-68
2022/06/07 19:32:11;;;;;;;3.00;2.15;;;;;;;18.35;69.92;98835.91;5122648;28;20055;-68
2022/06/07 19:34:38;;;;;;;2.88;1.80;;;;;;;18.36;69.95;98842.97;5122489;28;20071;-68
2022/06/07 19:37:06;;;;;;;3.30;2.17;;;;;;;18.35;70.30;98828.72;5122349;28;20056;-68
2022/06/07 19:39:33;;;;;;;6.97;4.05;;;;;;;18.38;70.15;98823.06;5122561;28;20315;-68
2022/06/07 19:42:02;;;;;;;2.67;1.98;;;;;;;18.38;70.13;98817.69;5122483;28;20063;-68
2022/06/07 19:44:31;;;;;;;2.20;1.50;;;;;;;18.37;70.00;98824.03;5122205;28;20055;-68
2022/06/07 19:46:58;;;;;;;2.83;1.85;;;;;;;18.39;70.17;98818.53;5122277;28;20055;-68
2022/06/07 19:49:27;;;;;;;6.10;3.67;;;;;;;18.36;70.02;98818.81;5122425;28;20209;-68
2022/06/07 19:51:56;;;;;;;6.05;3.65;;;;;;;18.20;70.01;98808.72;5122029;28;20047;-68
2022/06/07 19:54:24;;;;;;;3.08;2.00;;;;;;;18.32;70.13;98817.44;5121973;28;20052;-68
2022/06/07 19:56:51;;;;;;;5.97;2.10;;;;;;;18.32;70.01;98809.38;5122359;28;20207;-68
2022/06/07 19:59:18;;;;;;;3.08;2.13;;;;;;;18.30;69.80;98806.00;5121859;28;20051;-68
2022/06/07 20:01:47;;;;;;;4.72;1.88;;;;;;;18.25;69.98;98795.72;5121249;28;20300;-69
2022/06/07 20:04:14;;;;;;;3.00;2.03;;;;;;;18.22;70.31;98790.63;5107846;28;20056;-68
2022/06/07 20:06:42;;;;;;;3.10;2.35;;;;;;;18.25;70.06;98795.72;5108133;28;20067;-68
2022/06/07 20:09:10;;;;;;;3.58;2.45;;;;;;;18.24;69.73;98794.03;5108408;28;20055;-69
2022/06/07 20:11:37;;;;;;;3.85;2.90;;;;;;;18.24;70.00;98800.22;5108219;28;20051;-68
2022/06/07 20:14:04;;;;;;;4.50;3.90;;;;;;;18.22;70.20;98796.84;5108432;28;20059;-68
2022/06/07 20:16:32;;;;;;;4.30;2.85;;;;;;;18.24;69.98;98789.50;5108118;28;20048;-68
2022/06/07 20:19:00;;;;;;;4.55;3.42;;;;;;;18.24;69.75;98792.19;5108120;28;20056;-68
2022/06/07 20:21:28;;;;;;;3.67;2.97;;;;;;;18.26;70.13;98795.56;5108575;28;20044;-68
2022/06/07 20:23:55;;;;;;;4.93;3.75;;;;;;;18.30;70.08;98797.97;5108084;28;20056;-68
2022/06/07 20:26:22;;;;;;;3.70;3.17;;;;;;;18.21;70.01;98765.66;5108063;28;20063;-68
2022/06/07 20:28:50;;;;;;;4.35;3.75;;;;;;;18.30;70.07;98792.59;5108043;28;20055;-68
2022/06/07 20:31:17;;;;;;;4.20;3.42;;;;;;;18.31;69.83;98784.41;5107878;28;20056;-68
2022/06/07 20:33:45;;;;;;;5.53;3.35;;;;;;;18.32;69.57;98791.44;5107677;28;20059;-68
